sensor_id;sensor_type;location;lat;lon;timestamp;temperature;humidity
57829;DHT22;43657;52.698;6.314;2023-06-04T00:01:04;9.50;99.90
57829;DHT22;43657;52.698;6.314;2023-06-04T00:03:31;9.40;99.90
57829;DHT22;43657;52.698;6.314;2023-06-04T00:05:57;9.40;99.90
57829;DHT22;43657;52.698;6.314;2023-06-04T00:08:23;9.40;99.90
57829;DHT22;43657;52.698;6.314;2023-06-04T00:10:49;9.30;99.90
57829;DHT22;43657;52.698;6.314;2023-06-04T00:13:15;9.30;99.90
57829;DHT22;43657;52.698;6.314;2023-06-04T00:15:41;9.20;99.90
57829;DHT22;43657;52.698;6.314;2023-06-04T00:18:07;9.20;99.90
57829;DHT22;43657;52.698;6.314;2023-06-04T00:20:33;9.20;99.90
57829;DHT22;43657;52.698;6.314;2023-06-04T00:22:59;9.20;99.90
57829;DHT22;43657;52.698;6.314;2023-06-04T00:25:24;9.20;99.90
57829;DHT22;43657;52.698;6.314;2023-06-04T00:27:51;9.10;99.90
57829;DHT22;43657;52.698;6.314;2023-06-04T00:30:17;9.10;99.90
57829;DHT22;43657;52.698;6.314;2023-06-04T00:32:43;9.10;99.90
57829;DHT22;43657;52.698;6.314;2023-06-04T00:35:09;9.10;99.90
57829;DHT22;43657;52.698;6.314;2023-06-04T00:37:35;9.10;99.90
57829;DHT22;43657;52.698;6.314;2023-06-04T00:40:03;9.20;99.90
57829;DHT22;43657;52.698;6.314;2023-06-04T00:42:31;9.20;99.90
57829;DHT22;43657;52.698;6.314;2023-06-04T00:44:57;9.30;99.90
57829;DHT22;43657;52.698;6.314;2023-06-04T00:47:23;9.30;99.90
57829;DHT22;43657;52.698;6.314;2023-06-04T00:49:49;9.20;99.90
57829;DHT22;43657;52.698;6.314;2023-06-04T00:52:16;9.20;99.90
57829;DHT22;43657;52.698;6.314;2023-06-04T00:54:42;9.10;99.90
57829;DHT22;43657;52.698;6.314;2023-06-04T00:57:08;8.90;99.90
57829;DHT22;43657;52.698;6.314;2023-06-04T00:59:38;8.90;99.90
57829;DHT22;43657;52.698;6.314;2023-06-04T01:04:50;8.80;99.90
57829;DHT22;43657;52.698;6.314;2023-06-04T01:07:16;8.80;99.90
57829;DHT22;43657;52.698;6.314;2023-06-04T01:09:44;8.70;99.90
57829;DHT22;43657;52.698;6.314;2023-06-04T01:12:11;8.70;99.90
57829;DHT22;43657;52.698;6.314;2023-06-04T01:14:37;8.60;99.90
57829;DHT22;43657;52.698;6.314;2023-06-04T01:25:39;8.30;99.90
57829;DHT22;43657;52.698;6.314;2023-06-04T01:28:08;8.30;99.90
57829;DHT22;43657;52.698;6.314;2023-06-04T01:30:37;8.10;99.90
57829;DHT22;43657;52.698;6.314;2023-06-04T01:33:16;8.10;99.90
57829;DHT22;43657;52.698;6.314;2023-06-04T01:35:43;8.10;99.90
57829;DHT22;43657;52.698;6.314;2023-06-04T01:38:09;8.00;99.90
57829;DHT22;43657;52.698;6.314;2023-06-04T01:40:38;8.00;99.90
57829;DHT22;43657;52.698;6.314;2023-06-04T01:43:06;7.90;99.90
57829;DHT22;43657;52.698;6.314;2023-06-04T01:45:35;7.80;99.90
57829;DHT22;43657;52.698;6.314;2023-06-04T01:48:03;7.80;99.90
57829;DHT22;43657;52.698;6.314;2023-06-04T01:50:28;7.80;99.90
57829;DHT22;43657;52.698;6.314;2023-06-04T01:52:55;7.70;99.90
57829;DHT22;43657;52.698;6.314;2023-06-04T01:55:24;7.60;99.90
57829;DHT22;43657;52.698;6.314;2023-06-04T01:57:54;7.60;99.90
57829;DHT22;43657;52.698;6.314;2023-06-04T02:00:23;7.50;99.90
57829;DHT22;43657;52.698;6.314;2023-06-04T02:02:49;7.50;99.90
57829;DHT22;43657;52.698;6.314;2023-06-04T02:05:15;7.40;99.90
57829;DHT22;43657;52.698;6.314;2023-06-04T02:07:45;7.40;99.90
57829;DHT22;43657;52.698;6.314;2023-06-04T02:10:16;7.40;99.90
57829;DHT22;43657;52.698;6.314;2023-06-04T02:13:00;7.40;99.90
57829;DHT22;43657;52.698;6.314;2023-06-04T02:15:28;7.30;99.90
57829;DHT22;43657;52.698;6.314;2023-06-04T02:17:59;7.30;99.90
57829;DHT22;43657;52.698;6.314;2023-06-04T02:20:26;7.20;99.90
57829;DHT22;43657;52.698;6.314;2023-06-04T02:22:57;7.20;99.90
57829;DHT22;43657;52.698;6.314;2023-06-04T02:25:23;7.20;99.90
57829;DHT22;43657;52.698;6.314;2023-06-04T02:27:49;7.10;99.90
57829;DHT22;43657;52.698;6.314;2023-06-04T02:30:15;7.10;99.90
57829;DHT22;43657;52.698;6.314;2023-06-04T02:32:42;7.10;99.90
57829;DHT22;43657;52.698;6.314;2023-06-04T02:35:10;7.00;99.90
57829;DHT22;43657;52.698;6.314;2023-06-04T02:37:35;7.00;99.90
57829;DHT22;43657;52.698;6.314;2023-06-04T02:40:01;7.00;99.90
57829;DHT22;43657;52.698;6.314;2023-06-04T02:42:27;6.90;99.90
57829;DHT22;43657;52.698;6.314;2023-06-04T02:44:52;6.90;99.90
57829;DHT22;43657;52.698;6.314;2023-06-04T02:47:18;6.90;99.90
57829;DHT22;43657;52.698;6.314;2023-06-04T02:49:45;6.80;99.90
57829;DHT22;43657;52.698;6.314;2023-06-04T02:52:11;6.80;99.90
57829;DHT22;43657;52.698;6.314;2023-06-04T02:54:37;6.80;99.90
57829;DHT22;43657;52.698;6.314;2023-06-04T02:57:03;6.80;99.90
57829;DHT22;43657;52.698;6.314;2023-06-04T02:59:29;6.70;99.90
57829;DHT22;43657;52.698;6.314;2023-06-04T03:01:55;6.70;99.90
57829;DHT22;43657;52.698;6.314;2023-06-04T03:04:20;6.70;99.90
57829;DHT22;43657;52.698;6.314;2023-06-04T03:06:46;6.70;99.90
57829;DHT22;43657;52.698;6.314;2023-06-04T03:09:12;6.60;99.90
57829;DHT22;43657;52.698;6.314;2023-06-04T03:11:38;6.70;99.90
57829;DHT22;43657;52.698;6.314;2023-06-04T03:14:04;6.70;99.90
57829;DHT22;43657;52.698;6.314;2023-06-04T03:16:29;6.70;99.90
57829;DHT22;43657;52.698;6.314;2023-06-04T03:18:55;6.80;99.90
57829;DHT22;43657;52.698;6.314;2023-06-04T03:21:22;6.80;99.90
57829;DHT22;43657;52.698;6.314;2023-06-04T03:23:47;6.90;99.90
57829;DHT22;43657;52.698;6.314;2023-06-04T03:26:13;6.80;99.90
57829;DHT22;43657;52.698;6.314;2023-06-04T03:28:39;6.80;99.90
57829;DHT22;43657;52.698;6.314;2023-06-04T03:31:05;6.90;99.90
57829;DHT22;43657;52.698;6.314;2023-06-04T03:33:31;6.90;99.90
57829;DHT22;43657;52.698;6.314;2023-06-04T03:35:56;6.90;99.90
57829;DHT22;43657;52.698;6.314;2023-06-04T03:38:28;6.90;99.90
57829;DHT22;43657;52.698;6.314;2023-06-04T03:40:53;6.90;99.90
57829;DHT22;43657;52.698;6.314;2023-06-04T03:43:20;6.90;99.90
57829;DHT22;43657;52.698;6.314;2023-06-04T03:45:46;6.90;99.90
57829;DHT22;43657;52.698;6.314;2023-06-04T03:48:11;6.90;99.90
57829;DHT22;43657;52.698;6.314;2023-06-04T03:50:37;6.90;99.90
57829;DHT22;43657;52.698;6.314;2023-06-04T03:53:03;6.90;99.90
57829;DHT22;43657;52.698;6.314;2023-06-04T03:55:32;6.90;99.90
57829;DHT22;43657;52.698;6.314;2023-06-04T03:57:58;6.90;99.90
57829;DHT22;43657;52.698;6.314;2023-06-04T04:00:23;6.90;99.90
57829;DHT22;43657;52.698;6.314;2023-06-04T04:02:49;6.90;99.90
57829;DHT22;43657;52.698;6.314;2023-06-04T04:05:15;7.00;99.90
57829;DHT22;43657;52.698;6.314;2023-06-04T04:07:41;7.00;99.90
57829;DHT22;43657;52.698;6.314;2023-06-04T04:10:07;7.00;99.90
57829;DHT22;43657;52.698;6.314;2023-06-04T04:12:32;7.10;99.90
57829;DHT22;43657;52.698;6.314;2023-06-04T04:14:58;7.10;99.90
57829;DHT22;43657;52.698;6.314;2023-06-04T04:17:24;7.20;99.90
57829;DHT22;43657;52.698;6.314;2023-06-04T04:19:50;7.30;99.90
57829;DHT22;43657;52.698;6.314;2023-06-04T04:22:15;7.30;99.90
57829;DHT22;43657;52.698;6.314;2023-06-04T04:24:43;7.50;99.90
57829;DHT22;43657;52.698;6.314;2023-06-04T04:27:09;7.80;99.90
57829;DHT22;43657;52.698;6.314;2023-06-04T04:29:36;8.40;99.90
57829;DHT22;43657;52.698;6.314;2023-06-04T04:32:02;9.10;99.90
57829;DHT22;43657;52.698;6.314;2023-06-04T04:34:36;9.70;99.90
57829;DHT22;43657;52.698;6.314;2023-06-04T04:37:05;10.30;99.90
57829;DHT22;43657;52.698;6.314;2023-06-04T04:39:34;10.90;99.90
57829;DHT22;43657;52.698;6.314;2023-06-04T04:42:00;11.40;99.90
57829;DHT22;43657;52.698;6.314;2023-06-04T04:44:25;11.90;99.90
57829;DHT22;43657;52.698;6.314;2023-06-04T04:46:51;12.30;99.90
57829;DHT22;43657;52.698;6.314;2023-06-04T04:49:17;12.60;99.90
57829;DHT22;43657;52.698;6.314;2023-06-04T04:51:42;12.90;99.90
57829;DHT22;43657;52.698;6.314;2023-06-04T04:54:08;13.10;99.90
57829;DHT22;43657;52.698;6.314;2023-06-04T04:56:33;13.40;99.90
57829;DHT22;43657;52.698;6.314;2023-06-04T04:59:00;13.50;99.90
57829;DHT22;43657;52.698;6.314;2023-06-04T05:01:25;13.60;99.90
57829;DHT22;43657;52.698;6.314;2023-06-04T05:03:51;13.80;99.90
57829;DHT22;43657;52.698;6.314;2023-06-04T05:06:17;14.10;99.90
57829;DHT22;43657;52.698;6.314;2023-06-04T05:08:42;14.40;99.90
57829;DHT22;43657;52.698;6.314;2023-06-04T05:11:08;14.70;99.90
57829;DHT22;43657;52.698;6.314;2023-06-04T05:13:34;15.10;99.90
57829;DHT22;43657;52.698;6.314;2023-06-04T05:16:00;15.20;99.90
57829;DHT22;43657;52.698;6.314;2023-06-04T05:18:34;15.30;99.90
57829;DHT22;43657;52.698;6.314;2023-06-04T05:21:06;15.60;99.90
57829;DHT22;43657;52.698;6.314;2023-06-04T05:23:32;15.80;99.90
57829;DHT22;43657;52.698;6.314;2023-06-04T05:26:00;16.00;99.90
57829;DHT22;43657;52.698;6.314;2023-06-04T05:28:27;16.20;99.90
57829;DHT22;43657;52.698;6.314;2023-06-04T05:30:53;16.30;99.90
57829;DHT22;43657;52.698;6.314;2023-06-04T05:33:24;16.70;99.90
57829;DHT22;43657;52.698;6.314;2023-06-04T05:35:50;17.00;99.90
57829;DHT22;43657;52.698;6.314;2023-06-04T05:38:20;17.10;99.90
57829;DHT22;43657;52.698;6.314;2023-06-04T05:40:46;17.30;99.90
57829;DHT22;43657;52.698;6.314;2023-06-04T05:43:11;17.40;99.90
57829;DHT22;43657;52.698;6.314;2023-06-04T05:45:37;17.30;99.90
57829;DHT22;43657;52.698;6.314;2023-06-04T05:48:04;17.10;99.90
57829;DHT22;43657;52.698;6.314;2023-06-04T05:50:30;17.00;99.90
57829;DHT22;43657;52.698;6.314;2023-06-04T05:52:56;17.00;99.90
57829;DHT22;43657;52.698;6.314;2023-06-04T05:55:22;17.00;99.90
57829;DHT22;43657;52.698;6.314;2023-06-04T05:57:48;16.50;99.90
57829;DHT22;43657;52.698;6.314;2023-06-04T06:00:14;16.20;99.90
57829;DHT22;43657;52.698;6.314;2023-06-04T06:02:40;15.90;99.90
57829;DHT22;43657;52.698;6.314;2023-06-04T06:05:06;15.70;99.90
57829;DHT22;43657;52.698;6.314;2023-06-04T06:07:35;15.40;99.90
57829;DHT22;43657;52.698;6.314;2023-06-04T06:10:01;15.10;99.90
57829;DHT22;43657;52.698;6.314;2023-06-04T06:12:27;14.80;99.90
57829;DHT22;43657;52.698;6.314;2023-06-04T06:14:52;14.60;99.90
57829;DHT22;43657;52.698;6.314;2023-06-04T06:17:18;14.50;99.90
57829;DHT22;43657;52.698;6.314;2023-06-04T06:19:43;14.30;99.90
57829;DHT22;43657;52.698;6.314;2023-06-04T06:22:09;14.20;99.90
57829;DHT22;43657;52.698;6.314;2023-06-04T06:24:35;14.20;99.90
57829;DHT22;43657;52.698;6.314;2023-06-04T06:27:01;14.10;99.90
57829;DHT22;43657;52.698;6.314;2023-06-04T06:29:27;14.10;99.90
57829;DHT22;43657;52.698;6.314;2023-06-04T06:31:52;14.10;99.90
57829;DHT22;43657;52.698;6.314;2023-06-04T06:34:18;14.20;99.90
57829;DHT22;43657;52.698;6.314;2023-06-04T06:36:43;14.20;99.90
57829;DHT22;43657;52.698;6.314;2023-06-04T06:39:09;14.20;99.90
57829;DHT22;43657;52.698;6.314;2023-06-04T06:41:36;14.30;99.90
57829;DHT22;43657;52.698;6.314;2023-06-04T06:44:04;14.40;99.90
57829;DHT22;43657;52.698;6.314;2023-06-04T06:46:29;14.40;99.90
57829;DHT22;43657;52.698;6.314;2023-06-04T06:48:55;14.40;99.90
57829;DHT22;43657;52.698;6.314;2023-06-04T06:51:20;14.50;99.90
57829;DHT22;43657;52.698;6.314;2023-06-04T06:53:46;14.60;99.90
57829;DHT22;43657;52.698;6.314;2023-06-04T06:56:13;14.60;99.90
57829;DHT22;43657;52.698;6.314;2023-06-04T06:58:39;14.70;99.90
57829;DHT22;43657;52.698;6.314;2023-06-04T07:01:04;14.90;99.90
57829;DHT22;43657;52.698;6.314;2023-06-04T07:03:31;14.90;99.90
57829;DHT22;43657;52.698;6.314;2023-06-04T07:05:57;15.00;99.90
57829;DHT22;43657;52.698;6.314;2023-06-04T07:08:22;15.10;99.90
57829;DHT22;43657;52.698;6.314;2023-06-04T07:10:48;15.20;99.90
57829;DHT22;43657;52.698;6.314;2023-06-04T07:13:13;15.20;99.90
57829;DHT22;43657;52.698;6.314;2023-06-04T07:15:39;15.30;99.90
57829;DHT22;43657;52.698;6.314;2023-06-04T07:18:05;15.30;99.90
57829;DHT22;43657;52.698;6.314;2023-06-04T07:20:30;15.40;99.90
57829;DHT22;43657;52.698;6.314;2023-06-04T07:22:56;15.50;99.90
57829;DHT22;43657;52.698;6.314;2023-06-04T07:25:22;15.50;99.90
57829;DHT22;43657;52.698;6.314;2023-06-04T07:27:49;15.70;99.90
57829;DHT22;43657;52.698;6.314;2023-06-04T07:30:16;15.70;99.90
57829;DHT22;43657;52.698;6.314;2023-06-04T07:32:49;15.60;99.90
57829;DHT22;43657;52.698;6.314;2023-06-04T07:35:19;15.70;99.90
57829;DHT22;43657;52.698;6.314;2023-06-04T07:37:48;15.80;99.90
57829;DHT22;43657;52.698;6.314;2023-06-04T07:40:28;16.00;99.90
57829;DHT22;43657;52.698;6.314;2023-06-04T07:42:55;16.10;99.90
57829;DHT22;43657;52.698;6.314;2023-06-04T07:45:35;16.40;99.90
57829;DHT22;43657;52.698;6.314;2023-06-04T07:48:05;17.00;99.90
57829;DHT22;43657;52.698;6.314;2023-06-04T07:50:34;17.70;99.90
57829;DHT22;43657;52.698;6.314;2023-06-04T07:53:00;18.40;99.90
57829;DHT22;43657;52.698;6.314;2023-06-04T07:55:25;19.00;94.80
57829;DHT22;43657;52.698;6.314;2023-06-04T07:57:51;19.60;85.90
57829;DHT22;43657;52.698;6.314;2023-06-04T08:00:17;20.00;81.70
57829;DHT22;43657;52.698;6.314;2023-06-04T08:02:43;20.40;81.20
57829;DHT22;43657;52.698;6.314;2023-06-04T08:05:08;21.00;74.70
57829;DHT22;43657;52.698;6.314;2023-06-04T08:07:35;21.20;72.70
57829;DHT22;43657;52.698;6.314;2023-06-04T08:10:01;21.50;68.60
57829;DHT22;43657;52.698;6.314;2023-06-04T08:12:27;21.70;65.90
57829;DHT22;43657;52.698;6.314;2023-06-04T08:14:54;21.90;64.20
57829;DHT22;43657;52.698;6.314;2023-06-04T08:17:25;21.90;64.40
57829;DHT22;43657;52.698;6.314;2023-06-04T08:19:59;22.10;63.20
57829;DHT22;43657;52.698;6.314;2023-06-04T08:22:39;22.20;62.50
57829;DHT22;43657;52.698;6.314;2023-06-04T08:25:06;22.20;62.10
57829;DHT22;43657;52.698;6.314;2023-06-04T08:27:32;22.50;64.80
57829;DHT22;43657;52.698;6.314;2023-06-04T08:30:02;23.10;64.30
57829;DHT22;43657;52.698;6.314;2023-06-04T08:32:31;23.60;60.00
57829;DHT22;43657;52.698;6.314;2023-06-04T08:35:12;23.70;61.10
57829;DHT22;43657;52.698;6.314;2023-06-04T08:37:44;24.00;58.00
57829;DHT22;43657;52.698;6.314;2023-06-04T08:40:24;24.00;57.10
57829;DHT22;43657;52.698;6.314;2023-06-04T08:43:11;24.10;57.00
57829;DHT22;43657;52.698;6.314;2023-06-04T08:45:45;24.20;55.00
57829;DHT22;43657;52.698;6.314;2023-06-04T08:48:18;24.10;54.20
57829;DHT22;43657;52.698;6.314;2023-06-04T08:50:51;24.10;53.70
57829;DHT22;43657;52.698;6.314;2023-06-04T08:53:25;24.10;52.70
57829;DHT22;43657;52.698;6.314;2023-06-04T08:55:54;23.90;51.90
57829;DHT22;43657;52.698;6.314;2023-06-04T08:58:23;23.50;54.10
57829;DHT22;43657;52.698;6.314;2023-06-04T09:00:50;23.60;55.00
57829;DHT22;43657;52.698;6.314;2023-06-04T09:03:17;23.90;55.50
57829;DHT22;43657;52.698;6.314;2023-06-04T09:05:47;24.10;53.90
57829;DHT22;43657;52.698;6.314;2023-06-04T09:08:17;24.20;52.20
57829;DHT22;43657;52.698;6.314;2023-06-04T09:10:44;24.10;52.80
57829;DHT22;43657;52.698;6.314;2023-06-04T09:13:15;24.10;53.90
57829;DHT22;43657;52.698;6.314;2023-06-04T09:15:42;24.20;55.50
57829;DHT22;43657;52.698;6.314;2023-06-04T09:18:08;24.40;55.20
57829;DHT22;43657;52.698;6.314;2023-06-04T09:20:34;24.70;54.00
57829;DHT22;43657;52.698;6.314;2023-06-04T09:23:00;25.00;51.10
57829;DHT22;43657;52.698;6.314;2023-06-04T09:25:27;25.20;49.10
57829;DHT22;43657;52.698;6.314;2023-06-04T09:27:58;25.10;50.20
57829;DHT22;43657;52.698;6.314;2023-06-04T09:30:30;25.00;51.50
57829;DHT22;43657;52.698;6.314;2023-06-04T09:33:09;24.90;51.30
57829;DHT22;43657;52.698;6.314;2023-06-04T09:35:35;25.10;51.30
57829;DHT22;43657;52.698;6.314;2023-06-04T09:38:01;25.20;50.50
57829;DHT22;43657;52.698;6.314;2023-06-04T09:40:37;25.30;49.50
57829;DHT22;43657;52.698;6.314;2023-06-04T09:43:03;25.50;50.10
57829;DHT22;43657;52.698;6.314;2023-06-04T09:45:33;25.70;50.70
57829;DHT22;43657;52.698;6.314;2023-06-04T09:48:01;26.10;49.50
57829;DHT22;43657;52.698;6.314;2023-06-04T09:50:34;26.10;50.50
57829;DHT22;43657;52.698;6.314;2023-06-04T09:53:16;26.40;49.20
57829;DHT22;43657;52.698;6.314;2023-06-04T09:55:42;26.60;46.80
57829;DHT22;43657;52.698;6.314;2023-06-04T09:58:10;26.20;48.80
57829;DHT22;43657;52.698;6.314;2023-06-04T10:00:37;26.20;48.90
57829;DHT22;43657;52.698;6.314;2023-06-04T10:03:03;26.50;50.80
57829;DHT22;43657;52.698;6.314;2023-06-04T10:05:36;27.10;47.50
57829;DHT22;43657;52.698;6.314;2023-06-04T10:08:05;27.50;44.60
57829;DHT22;43657;52.698;6.314;2023-06-04T10:10:37;27.00;45.50
57829;DHT22;43657;52.698;6.314;2023-06-04T10:13:17;26.90;47.20
57829;DHT22;43657;52.698;6.314;2023-06-04T10:15:43;26.90;44.70
57829;DHT22;43657;52.698;6.314;2023-06-04T10:18:10;26.60;46.40
57829;DHT22;43657;52.698;6.314;2023-06-04T10:20:36;26.60;47.10
57829;DHT22;43657;52.698;6.314;2023-06-04T10:23:03;27.10;47.60
57829;DHT22;43657;52.698;6.314;2023-06-04T10:25:30;27.40;44.60
57829;DHT22;43657;52.698;6.314;2023-06-04T10:27:56;27.50;43.20
57829;DHT22;43657;52.698;6.314;2023-06-04T10:30:22;27.50;42.20
57829;DHT22;43657;52.698;6.314;2023-06-04T10:32:49;27.60;41.50
57829;DHT22;43657;52.698;6.314;2023-06-04T10:35:15;27.30;42.70
57829;DHT22;43657;52.698;6.314;2023-06-04T10:37:41;27.10;43.60
57829;DHT22;43657;52.698;6.314;2023-06-04T10:40:07;27.00;44.30
57829;DHT22;43657;52.698;6.314;2023-06-04T10:42:41;27.00;43.50
57829;DHT22;43657;52.698;6.314;2023-06-04T10:45:09;26.80;45.80
57829;DHT22;43657;52.698;6.314;2023-06-04T10:47:37;27.20;42.70
57829;DHT22;43657;52.698;6.314;2023-06-04T10:50:14;27.10;45.90
57829;DHT22;43657;52.698;6.314;2023-06-04T10:52:54;27.30;45.50
57829;DHT22;43657;52.698;6.314;2023-06-04T10:55:20;27.80;43.50
57829;DHT22;43657;52.698;6.314;2023-06-04T10:58:00;27.80;42.60
57829;DHT22;43657;52.698;6.314;2023-06-04T11:00:45;27.30;44.50
57829;DHT22;43657;52.698;6.314;2023-06-04T11:03:15;27.30;45.00
57829;DHT22;43657;52.698;6.314;2023-06-04T11:05:43;27.60;43.20
57829;DHT22;43657;52.698;6.314;2023-06-04T11:08:11;27.50;45.00
57829;DHT22;43657;52.698;6.314;2023-06-04T11:10:40;27.80;43.90
57829;DHT22;43657;52.698;6.314;2023-06-04T11:13:06;27.80;45.80
57829;DHT22;43657;52.698;6.314;2023-06-04T11:15:45;28.10;43.40
57829;DHT22;43657;52.698;6.314;2023-06-04T11:18:20;27.70;43.90
57829;DHT22;43657;52.698;6.314;2023-06-04T11:20:58;27.70;45.50
57829;DHT22;43657;52.698;6.314;2023-06-04T11:23:24;28.10;44.10
57829;DHT22;43657;52.698;6.314;2023-06-04T11:25:52;28.30;43.20
57829;DHT22;43657;52.698;6.314;2023-06-04T11:28:18;27.90;45.00
57829;DHT22;43657;52.698;6.314;2023-06-04T11:31:05;28.00;48.10
57829;DHT22;43657;52.698;6.314;2023-06-04T11:33:47;28.60;44.70
57829;DHT22;43657;52.698;6.314;2023-06-04T11:36:23;28.70;42.80
57829;DHT22;43657;52.698;6.314;2023-06-04T11:38:57;28.60;46.10
57829;DHT22;43657;52.698;6.314;2023-06-04T11:41:26;29.00;42.40
57829;DHT22;43657;52.698;6.314;2023-06-04T11:43:52;28.40;43.70
57829;DHT22;43657;52.698;6.314;2023-06-04T11:46:19;28.10;44.50
57829;DHT22;43657;52.698;6.314;2023-06-04T11:48:45;28.20;44.40
57829;DHT22;43657;52.698;6.314;2023-06-04T11:51:12;28.20;42.90
57829;DHT22;43657;52.698;6.314;2023-06-04T11:53:38;27.90;43.00
57829;DHT22;43657;52.698;6.314;2023-06-04T11:56:05;27.70;44.70
57829;DHT22;43657;52.698;6.314;2023-06-04T11:58:31;27.80;45.30
57829;DHT22;43657;52.698;6.314;2023-06-04T12:00:58;28.10;44.10
57829;DHT22;43657;52.698;6.314;2023-06-04T12:03:35;27.90;46.40
57829;DHT22;43657;52.698;6.314;2023-06-04T12:06:21;28.00;45.80
57829;DHT22;43657;52.698;6.314;2023-06-04T12:08:52;28.50;44.80
57829;DHT22;43657;52.698;6.314;2023-06-04T12:11:30;28.90;41.80
57829;DHT22;43657;52.698;6.314;2023-06-04T12:14:07;28.60;42.10
57829;DHT22;43657;52.698;6.314;2023-06-04T12:16:40;28.20;44.50
57829;DHT22;43657;52.698;6.314;2023-06-04T12:19:11;28.40;42.90
57829;DHT22;43657;52.698;6.314;2023-06-04T12:21:38;28.20;45.00
57829;DHT22;43657;52.698;6.314;2023-06-04T12:24:14;28.40;44.70
57829;DHT22;43657;52.698;6.314;2023-06-04T12:26:41;28.90;43.20
57829;DHT22;43657;52.698;6.314;2023-06-04T12:29:15;29.00;43.90
57829;DHT22;43657;52.698;6.314;2023-06-04T12:31:43;29.00;41.30
57829;DHT22;43657;52.698;6.314;2023-06-04T12:34:11;28.30;42.10
57829;DHT22;43657;52.698;6.314;2023-06-04T12:36:37;27.80;44.50
57829;DHT22;43657;52.698;6.314;2023-06-04T12:39:04;27.90;42.10
57829;DHT22;43657;52.698;6.314;2023-06-04T12:41:33;27.60;42.90
57829;DHT22;43657;52.698;6.314;2023-06-04T12:44:00;27.50;42.10
57829;DHT22;43657;52.698;6.314;2023-06-04T12:46:27;27.10;43.00
57829;DHT22;43657;52.698;6.314;2023-06-04T12:48:54;27.00;43.70
57829;DHT22;43657;52.698;6.314;2023-06-04T12:51:20;27.00;42.90
57829;DHT22;43657;52.698;6.314;2023-06-04T12:53:47;26.90;42.30
57829;DHT22;43657;52.698;6.314;2023-06-04T12:56:13;26.80;46.10
57829;DHT22;43657;52.698;6.314;2023-06-04T12:58:39;27.30;43.80
57829;DHT22;43657;52.698;6.314;2023-06-04T13:01:05;27.50;43.10
57829;DHT22;43657;52.698;6.314;2023-06-04T13:03:32;27.50;43.60
57829;DHT22;43657;52.698;6.314;2023-06-04T13:05:58;27.70;42.10
57829;DHT22;43657;52.698;6.314;2023-06-04T13:08:24;27.60;42.00
57829;DHT22;43657;52.698;6.314;2023-06-04T13:10:51;27.40;41.70
57829;DHT22;43657;52.698;6.314;2023-06-04T13:13:18;27.20;43.80
57829;DHT22;43657;52.698;6.314;2023-06-04T13:15:44;27.20;43.20
57829;DHT22;43657;52.698;6.314;2023-06-04T13:18:10;27.00;42.80
57829;DHT22;43657;52.698;6.314;2023-06-04T13:20:37;26.70;42.90
57829;DHT22;43657;52.698;6.314;2023-06-04T13:23:03;26.50;43.20
57829;DHT22;43657;52.698;6.314;2023-06-04T13:25:29;26.40;42.80
57829;DHT22;43657;52.698;6.314;2023-06-04T13:27:56;26.40;42.80
57829;DHT22;43657;52.698;6.314;2023-06-04T13:30:22;26.40;43.70
57829;DHT22;43657;52.698;6.314;2023-06-04T13:32:48;26.60;44.30
57829;DHT22;43657;52.698;6.314;2023-06-04T13:35:14;27.00;45.50
57829;DHT22;43657;52.698;6.314;2023-06-04T13:37:40;27.30;45.40
57829;DHT22;43657;52.698;6.314;2023-06-04T13:40:06;27.40;43.80
57829;DHT22;43657;52.698;6.314;2023-06-04T13:42:32;27.20;44.50
57829;DHT22;43657;52.698;6.314;2023-06-04T13:44:58;27.30;45.60
57829;DHT22;43657;52.698;6.314;2023-06-04T13:47:24;27.40;42.30
57829;DHT22;43657;52.698;6.314;2023-06-04T13:49:50;27.00;44.40
57829;DHT22;43657;52.698;6.314;2023-06-04T13:52:16;27.20;45.70
57829;DHT22;43657;52.698;6.314;2023-06-04T13:54:42;27.50;45.30
57829;DHT22;43657;52.698;6.314;2023-06-04T13:57:08;27.80;44.30
57829;DHT22;43657;52.698;6.314;2023-06-04T13:59:37;27.90;45.60
57829;DHT22;43657;52.698;6.314;2023-06-04T14:02:03;28.30;43.80
57829;DHT22;43657;52.698;6.314;2023-06-04T14:04:29;28.30;43.50
57829;DHT22;43657;52.698;6.314;2023-06-04T14:06:55;28.20;44.60
57829;DHT22;43657;52.698;6.314;2023-06-04T14:09:21;28.20;43.30
57829;DHT22;43657;52.698;6.314;2023-06-04T14:11:46;28.10;45.00
57829;DHT22;43657;52.698;6.314;2023-06-04T14:14:16;28.30;44.70
57829;DHT22;43657;52.698;6.314;2023-06-04T14:16:44;28.30;45.50
57829;DHT22;43657;52.698;6.314;2023-06-04T14:19:10;28.60;44.00
57829;DHT22;43657;52.698;6.314;2023-06-04T14:21:36;28.20;42.40
57829;DHT22;43657;52.698;6.314;2023-06-04T14:24:02;27.50;44.60
57829;DHT22;43657;52.698;6.314;2023-06-04T14:26:27;27.10;45.80
57829;DHT22;43657;52.698;6.314;2023-06-04T14:28:55;27.20;46.70
57829;DHT22;43657;52.698;6.314;2023-06-04T14:31:20;27.50;46.80
57829;DHT22;43657;52.698;6.314;2023-06-04T14:33:46;27.60;44.40
57829;DHT22;43657;52.698;6.314;2023-06-04T14:36:12;27.40;45.50
57829;DHT22;43657;52.698;6.314;2023-06-04T14:38:40;27.30;44.40
57829;DHT22;43657;52.698;6.314;2023-06-04T14:41:07;27.30;45.00
57829;DHT22;43657;52.698;6.314;2023-06-04T14:43:33;27.30;46.00
57829;DHT22;43657;52.698;6.314;2023-06-04T14:45:58;26.90;47.00
57829;DHT22;43657;52.698;6.314;2023-06-04T14:48:24;26.40;47.20
57829;DHT22;43657;52.698;6.314;2023-06-04T14:50:50;26.00;47.30
57829;DHT22;43657;52.698;6.314;2023-06-04T14:53:19;25.50;48.00
57829;DHT22;43657;52.698;6.314;2023-06-04T14:55:45;25.20;49.30
57829;DHT22;43657;52.698;6.314;2023-06-04T14:58:14;25.10;49.60
57829;DHT22;43657;52.698;6.314;2023-06-04T15:00:43;24.90;49.30
57829;DHT22;43657;52.698;6.314;2023-06-04T15:03:09;24.70;49.60
57829;DHT22;43657;52.698;6.314;2023-06-04T15:05:34;24.20;51.40
57829;DHT22;43657;52.698;6.314;2023-06-04T15:08:01;24.00;51.20
57829;DHT22;43657;52.698;6.314;2023-06-04T15:10:27;23.80;51.80
57829;DHT22;43657;52.698;6.314;2023-06-04T15:12:53;23.60;52.60
57829;DHT22;43657;52.698;6.314;2023-06-04T15:15:18;23.50;53.50
57829;DHT22;43657;52.698;6.314;2023-06-04T15:17:44;23.40;54.00
57829;DHT22;43657;52.698;6.314;2023-06-04T15:20:10;23.30;53.80
57829;DHT22;43657;52.698;6.314;2023-06-04T15:22:36;23.20;53.90
57829;DHT22;43657;52.698;6.314;2023-06-04T15:25:02;23.10;54.00
57829;DHT22;43657;52.698;6.314;2023-06-04T15:27:30;22.90;54.70
57829;DHT22;43657;52.698;6.314;2023-06-04T15:30:04;22.60;55.90
57829;DHT22;43657;52.698;6.314;2023-06-04T15:32:30;22.70;55.00
57829;DHT22;43657;52.698;6.314;2023-06-04T15:34:56;22.70;54.90
57829;DHT22;43657;52.698;6.314;2023-06-04T15:37:23;22.60;55.20
57829;DHT22;43657;52.698;6.314;2023-06-04T15:39:49;22.40;56.20
57829;DHT22;43657;52.698;6.314;2023-06-04T15:42:14;22.30;57.50
57829;DHT22;43657;52.698;6.314;2023-06-04T15:44:43;22.20;57.10
57829;DHT22;43657;52.698;6.314;2023-06-04T15:47:09;22.20;57.00
57829;DHT22;43657;52.698;6.314;2023-06-04T15:49:35;22.00;57.60